Flight Track Log - Related Links

Times and Time Zones

All times are in EDT time to prevent confusion due to time zone crossing. See the UAL4498 flight status page for this flight to view local times or setup timezone preferences in your user account.

Time Position Orientation Groundspeed Altitude Reporting Facility
EDT Latitude Longitude Course Direction KTS MPH feet Rate Location/Type
Wed 06:01:31 AM 36.8806 -76.2178 208° Southwest 166 191 600  Level Washington Center
Wed 06:01:55 AM 36.8617 -76.2306 208° Southwest 171 197 1,400 2,149 Climbing Washington Center
Wed 06:02:38 AM 36.8425 -76.2642 235° Southwest 199 229 3,000 1,800 Climbing Washington Center
Wed 06:02:55 AM 36.8342 -76.2875 246° West 210 242 3,200 1,800 Climbing Washington Center
Wed 06:03:38 AM 36.8275 -76.3444 262° West 255 293 4,800 2,200 Climbing Washington Center
Wed 06:03:55 AM 36.8253 -76.3625 261° West 249 287 5,400 2,321 Climbing Washington Center
Wed 06:05:55 AM 36.7950 -76.5411 258° West 265 305 10,100 1,833 Climbing Washington Center
Wed 06:06:55 AM 36.7772 -76.6447 258° West 285 328 10,900 1,450 Climbing Washington Center
Wed 06:07:55 AM 36.7575 -76.7533 257° West 309 356 13,000 1,800 Climbing Washington Center
Wed 06:08:55 AM 36.7375 -76.8669 258° West 329 379 14,500 1,450 Climbing Washington Center
Wed 06:09:55 AM 36.7197 -76.9808 259° West 335 386 15,900 1,300 Climbing Washington Center
Wed 06:10:55 AM 36.6767 -77.0939 245° Southwest 341 392 17,100 1,400 Climbing Washington Center
Wed 06:11:55 AM 36.6272 -77.2017 240° Southwest 356 410 18,700 1,700 Climbing Washington Center
Wed 06:12:55 AM 36.5756 -77.3092 239° Southwest 362 417 20,500 1,850 Climbing Washington Center
Wed 06:13:55 AM 36.5283 -77.4117 240° Southwest 367 422 22,400 1,650 Climbing Washington Center
Wed 06:14:55 AM 36.4786 -77.5189 240° Southwest 360 414 23,800 1,450 Climbing Washington Center
Wed 06:15:55 AM 36.4331 -77.6211 241° Southwest 355 409 25,300 1,500 Climbing Washington Center
Wed 06:16:55 AM 36.3856 -77.7206 239° Southwest 355 409 26,800 1,400 Climbing Washington Center
Wed 06:17:55 AM 36.3356 -77.8222 239° Southwest 355 409 28,100 1,400 Climbing Washington Center
Wed 06:18:55 AM 36.2900 -77.9217 240° Southwest 350 403 29,600 1,150 Climbing Washington Center
Wed 06:19:55 AM 36.2419 -78.0206 239° Southwest 350 403 30,400 1,000 Climbing Washington Center
Wed 06:20:55 AM 36.1939 -78.1244 240° Southwest 350 403 31,600 1,250 Climbing Washington Center
Wed 06:21:55 AM 36.1481 -78.2233 240° Southwest 345 397 32,900 1,100 Climbing Washington Center
Wed 06:22:55 AM 36.1000 -78.3219 239° Southwest 345 397 33,800 850 Climbing Washington Center
Wed 06:23:55 AM 36.0517 -78.4181 238° Southwest 339 390 34,600 650 Climbing Washington Center
Wed 06:24:55 AM 36.0056 -78.5164 240° Southwest 339 390 35,100 500 Climbing Washington Center
Wed 06:25:55 AM 35.9572 -78.6175 239° Southwest 339 390 35,600 450 Climbing Washington Center
Wed 06:26:55 AM 35.9067 -78.7181 238° Southwest 339 390 36,000 200 Climbing Washington Center
Wed 06:27:55 AM 35.8619 -78.8289 244° Southwest 345 397 36,000  Level Washington Center
Wed 06:28:55 AM 35.8314 -78.9481 252° West 351 404 36,000  Level Washington Center
Wed 06:29:55 AM 35.8008 -79.0725 253° West 370 426 36,000  Level Washington Center
Wed 06:30:55 AM 35.7678 -79.1989 252° West 381 438 36,000  Level Washington Center
Wed 06:31:55 AM 35.7372 -79.3178 252° West 397 457 36,000  Level Washington Center
Wed 06:34:17 AM 35.6614 -79.6092 252° West 390 449 36,000  Level Atlanta Center
Wed 06:35:17 AM 35.6208 -79.7622 252° West 396 456 36,000  Level Atlanta Center
Wed 06:36:17 AM 35.5878 -79.8917 253° West 396 456 36,000  Level Atlanta Center
Wed 06:37:17 AM 35.5522 -80.0158 251° West 391 450 36,000  Level Atlanta Center
Wed 06:38:17 AM 35.5186 -80.1425 252° West 391 450 36,000  Level Atlanta Center
Wed 06:39:17 AM 35.4850 -80.2667 252° West 391 450 36,000  Level Atlanta Center
Wed 06:40:17 AM 35.4533 -80.3903 253° West 391 450 36,000  Level Atlanta Center
Wed 06:41:17 AM 35.4194 -80.5192 252° West 391 450 36,000  Level Atlanta Center
Wed 06:42:17 AM 35.3836 -80.6483 251° West 391 450 36,000  Level Atlanta Center
Wed 06:43:17 AM 35.3533 -80.7642 252° West 391 450 36,000  Level Atlanta Center
Wed 06:44:17 AM 35.3169 -80.8953 251° West 401 461 36,000  Level Atlanta Center
Wed 06:45:17 AM 35.2828 -81.0264 252° West 406 467 36,000  Level Atlanta Center
Wed 06:46:17 AM 35.2464 -81.1575 251° West 406 467 36,000  Level Atlanta Center
Wed 06:47:17 AM 35.2078 -81.3011 252° West 406 467 36,000  Level Atlanta Center
Wed 06:48:17 AM 35.1731 -81.4319 252° West 406 467 36,000  Level Atlanta Center
Wed 06:49:17 AM 35.1361 -81.5600 251° West 406 467 36,000  Level Atlanta Center
Wed 06:50:17 AM 35.1011 -81.6906 252° West 406 467 36,000  Level Atlanta Center
Wed 06:51:17 AM 35.0639 -81.8158 250° West 405 466 36,000  Level Atlanta Center
Wed 06:52:17 AM 35.0244 -81.9411 249° West 405 466 36,000  Level Atlanta Center
Wed 06:53:17 AM 34.9594 -82.0569 236° Southwest 407 468 36,000  Level Atlanta Center
Wed 06:54:17 AM 34.8983 -82.1519 232° Southwest 407 468 36,000  Level Atlanta Center
Wed 06:55:17 AM 34.8311 -82.2625 233° Southwest 413 475 36,000  Level Atlanta Center
Wed 06:56:17 AM 34.7639 -82.3750 234° Southwest 418 481 36,000  Level Atlanta Center
Wed 06:57:17 AM 34.6964 -82.4850 233° Southwest 418 481 36,000  Level Atlanta Center
Wed 06:58:17 AM 34.6186 -82.6103 233° Southwest 418 481 36,000  Level Atlanta Center
Wed 06:59:17 AM 34.5511 -82.7197 233° Southwest 418 481 36,000  Level Atlanta Center
Wed 07:00:17 AM 34.4792 -82.8292 231° Southwest 418 481 36,000  Level Atlanta Center
Wed 07:01:17 AM 34.4133 -82.9408 234° Southwest 418 481 36,000  Level Atlanta Center
Wed 07:02:17 AM 34.3456 -83.0500 233° Southwest 413 475 36,000  Level Atlanta Center
Wed 07:03:17 AM 34.2878 -83.1489 235° Southwest 413 475 36,000  Level Atlanta Center
Wed 07:04:17 AM 34.2217 -83.2575 234° Southwest 413 475 36,000  Level Atlanta Center
Wed 07:05:17 AM 34.1514 -83.3611 231° Southwest 413 475 36,000  Level Atlanta Center
Wed 07:06:17 AM 34.0872 -83.4669 234° Southwest 413 475 36,000  Level Atlanta Center
Wed 07:07:17 AM 34.0208 -83.5725 233° Southwest 408 470 36,000  Level Atlanta Center
Wed 07:08:17 AM 33.9544 -83.6781 233° Southwest 401 461 36,000  Level Atlanta Center
Wed 07:09:17 AM 33.8817 -83.7936 233° Southwest 401 461 36,000  Level Atlanta Center
Wed 07:10:17 AM 33.8150 -83.8964 232° Southwest 394 453 36,000  Level Atlanta Center
Wed 07:11:17 AM 33.7483 -83.9989 232° Southwest 399 459 36,000  Level Atlanta Center
Wed 07:12:17 AM 33.6814 -84.1036 232° Southwest 399 459 36,000  Level Atlanta Center
Wed 07:13:17 AM 33.6272 -84.1886 233° Southwest 399 459 36,000  Level Atlanta Center
Wed 07:14:17 AM 33.5478 -84.3106 232° Southwest 394 453 36,000  Level Atlanta Center
Wed 07:15:17 AM 33.4911 -84.4050 234° Southwest 394 453 36,000  Level Atlanta Center
Wed 07:16:17 AM 33.4219 -84.5067 231° Southwest 394 453 36,000  Level Atlanta Center
Wed 07:17:17 AM 33.3567 -84.6108 233° Southwest 394 453 36,000  Level Atlanta Center
Wed 07:18:17 AM 33.2914 -84.7122 232° Southwest 385 443 36,000  Level Atlanta Center
Wed 07:19:17 AM 33.2242 -84.8111 231° Southwest 391 450 36,000  Level Atlanta Center
Wed 07:20:17 AM 33.1544 -84.9247 234° Southwest 391 450 36,000  Level Atlanta Center
Wed 07:21:17 AM 33.0889 -85.0256 232° Southwest 391 450 36,000  Level Atlanta Center
Wed 07:22:17 AM 33.0214 -85.1264 231° Southwest 391 450 36,000  Level Atlanta Center
Wed 07:23:17 AM 32.9642 -85.2100 231° Southwest 385 443 36,000  Level Atlanta Center
Wed 07:24:17 AM 32.9006 -85.3081 232° Southwest 385 443 36,000  Level Atlanta Center
Wed 07:25:17 AM 32.8369 -85.4011 231° Southwest 385 443 36,000  Level Atlanta Center
Wed 07:26:17 AM 32.7733 -85.4964 232° Southwest 379 436 36,000  Level Atlanta Center
Wed 07:27:17 AM 32.7117 -85.5892 232° Southwest 374 430 36,000  Level Atlanta Center
Wed 07:28:17 AM 32.6478 -85.6867 232° Southwest 374 430 36,000  Level Atlanta Center
Wed 07:29:17 AM 32.5839 -85.7792 231° Southwest 374 430 36,000  Level Atlanta Center
Wed 07:30:17 AM 32.5219 -85.8792 234° Southwest 374 430 36,000  Level Atlanta Center
Wed 07:31:17 AM 32.4450 -85.9883 230° Southwest 387 445 36,000  Level Atlanta Center
Wed 07:32:17 AM 32.3831 -86.0828 232° Southwest 387 445 36,000  Level Atlanta Center
Wed 07:33:17 AM 32.3189 -86.1772 231° Southwest 382 440 36,000  Level Atlanta Center
Wed 07:34:17 AM 32.2567 -86.2689 231° Southwest 377 434 36,000  Level Atlanta Center
Wed 07:35:17 AM 32.1944 -86.3656 233° Southwest 372 428 36,000  Level Atlanta Center
Wed 07:36:17 AM 32.1406 -86.4450 231° Southwest 361 415 36,000  Level Atlanta Center
Wed 07:37:17 AM 32.0761 -86.5367 230° Southwest 361 415 36,000  Level Atlanta Center
Wed 07:38:17 AM 32.0097 -86.6278 229° Southwest 371 427 36,000  Level Atlanta Center
Wed 07:39:17 AM 31.9325 -86.7258 227° Southwest 379 436 36,000  Level Atlanta Center
Wed 07:40:17 AM 31.8636 -86.8167 228° Southwest 379 436 36,000  Level Atlanta Center
Wed 07:41:17 AM 31.7967 -86.9100 230° Southwest 379 436 36,000  Level Atlanta Center
Wed 07:42:17 AM 31.7297 -87.0056 231° Southwest 379 436 36,000  Level Atlanta Center
Wed 07:43:17 AM 31.6736 -87.0889 232° Southwest 379 436 36,000  Level Atlanta Center
Wed 07:45:46 AM 31.4958 -87.3228 228° Southwest 377 434 36,000  Level Houston Center
Wed 07:46:47 AM 31.4250 -87.4172 229° Southwest 384 442 36,000  Level Houston Center
Wed 07:47:48 AM 31.3561 -87.5133 230° Southwest 385 443 36,000  Level Houston Center
Wed 07:48:49 AM 31.2850 -87.6075 229° Southwest 385 443 36,000  Level Houston Center
Wed 07:49:50 AM 31.2114 -87.7092 230° Southwest 385 443 36,000  Level Houston Center
Wed 07:50:51 AM 31.1411 -87.8031 229° Southwest 385 443 36,000  Level Houston Center
Wed 07:51:53 AM 31.0725 -87.8956 229° Southwest 378 435 36,000  Level Houston Center
Wed 07:52:54 AM 31.0033 -87.9878 229° Southwest 378 435 36,000  Level Houston Center
Wed 07:53:55 AM 30.9342 -88.0789 229° Southwest 376 433 36,000  Level Houston Center
Wed 07:54:56 AM 30.8644 -88.1706 228° Southwest 378 435 36,000  Level Houston Center
Wed 07:55:57 AM 30.7972 -88.2619 229° Southwest 375 432 36,000  Level Houston Center
Wed 07:56:59 AM 30.7161 -88.3739 230° Southwest 376 433 36,000 -49 Level Houston Center
Wed 07:58:00 AM 30.6811 -88.4875 250° West 366 421 35,900  Descending Houston Center
Wed 07:59:01 AM 30.6428 -88.5964 248° West 363 418 36,000 49 Climbing Houston Center
Wed 08:00:02 AM 30.6056 -88.7047 248° West 361 415 36,000  Level Houston Center
Wed 08:01:04 AM 30.5689 -88.8122 248° West 359 413 36,000  Level Houston Center
Wed 08:02:05 AM 30.5314 -88.9192 248° West 358 412 36,000  Level Houston Center
Wed 08:03:06 AM 30.4961 -89.0225 248° West 356 410 36,000  Level Houston Center
Wed 08:04:07 AM 30.4597 -89.1294 248° West 355 409 36,000  Level Houston Center
Wed 08:05:08 AM 30.4228 -89.2369 248° West 359 413 36,000  Level Houston Center
Wed 08:06:10 AM 30.3844 -89.3469 248° West 366 421 36,000  Level Houston Center
Wed 08:07:11 AM 30.3375 -89.4806 248° West 371 427 36,000  Level Houston Center
Wed 08:08:12 AM 30.2986 -89.5911 248° West 368 423 36,000  Level Houston Center
Wed 08:09:14 AM 30.2578 -89.7019 247° West 367 422 36,000  Level Houston Center
Wed 08:10:15 AM 30.2169 -89.8164 248° West 374 430 36,000  Level Houston Center
Wed 08:11:16 AM 30.1792 -89.9275 249° West 368 423 36,000  Level Houston Center
Wed 08:12:19 AM 30.1406 -90.0372 248° West 367 422 36,000  Level Houston Center
Wed 08:13:19 AM 30.1011 -90.1467 247° West 368 423 36,000  Level Houston Center
Wed 08:14:20 AM 30.0619 -90.2561 248° West 369 425 36,000  Level Houston Center
Wed 08:15:22 AM 30.0222 -90.3661 247° West 372 428 36,000  Level Houston Center
Wed 08:16:24 AM 29.9817 -90.4778 247° West 378 435 36,000  Level Houston Center
Wed 08:17:25 AM 29.9419 -90.5892 248° West 378 435 36,000  Level Houston Center
Wed 08:18:26 AM 29.9006 -90.7028 247° West 383 441 36,000  Level Houston Center
Wed 08:19:28 AM 29.8589 -90.8139 247° West 381 438 36,000  Level Houston Center
Wed 08:21:00 AM 29.7967 -90.9783 246° West  Level FlightAware Approximate
Wed 08:22:32 AM 29.7281 -91.1722 246° West 377 434 36,000  Level Houston Center
Wed 08:23:34 AM 29.6878 -91.2833 247° West 378 435 36,000  Level Houston Center
Wed 08:24:35 AM 29.6453 -91.3972 247° West 385 443 36,000  Level Houston Center
Wed 08:25:37 AM 29.6114 -91.5128 251° West 384 442 36,000  Level Houston Center
Wed 08:26:38 AM 29.5944 -91.6331 261° West 381 438 36,000  Level Houston Center
Wed 08:27:40 AM 29.5722 -91.7572 258° West 386 444 36,000  Level Houston Center
Wed 08:28:41 AM 29.5536 -91.8786 260° West 386 444 36,000  Level Houston Center
Wed 08:29:43 AM 29.5283 -92.0258 259° West 392 451 36,000  Level Houston Center
Wed 08:30:44 AM 29.5100 -92.1436 260° West 378 435 36,000  Level Houston Center
Wed 08:31:46 AM 29.4883 -92.2628 258° West 380 437 36,000  Level Houston Center
Wed 08:32:47 AM 29.4697 -92.3808 260° West 377 434 36,000  Level Houston Center
Wed 08:33:49 AM 29.4572 -92.5014 263° West 382 440 36,000  Level Houston Center
Wed 08:34:50 AM 29.4642 -92.6214 274° West 378 435 36,000  Level Houston Center
Wed 08:35:52 AM 29.4700 -92.7383 273° West 369 425 36,000 -195 Level Houston Center
Wed 08:36:53 AM 29.4742 -92.8575 272° West 372 428 35,600 -780 Descending Houston Center
Wed 08:37:55 AM 29.4814 -93.0017 273° West 375 432 34,400 -1,268 Descending Houston Center
Wed 08:38:56 AM 29.4861 -93.1258 273° West 383 441 33,000 -1,707 Descending Houston Center
Wed 08:39:58 AM 29.4922 -93.2514 273° West 389 448 30,900 -2,081 Descending Houston Center
Wed 08:41:00 AM 29.4972 -93.3778 273° West 394 453 28,700 -2,098 Descending Houston Center
Wed 08:42:01 AM 29.5014 -93.5025 272° West 393 452 26,600 -1,951 Descending Houston Center
Wed 08:43:03 AM 29.5067 -93.6253 273° West 387 445 24,700 -1,902 Descending Houston Center
Wed 08:44:04 AM 29.5100 -93.7442 272° West 375 432 22,700 -1,951 Descending Houston Center
Wed 08:45:06 AM 29.5156 -93.8600 273° West 365 420 20,700 -2,182 Descending Houston Center
Wed 08:45:21 AM 29.5169 -93.9028 272° West 361 415 19,900 -2,066 Descending Houston Center
Wed 08:46:07 AM 29.5203 -93.9742 273° West 359 413 18,600 -1,808 Descending Houston Center
Wed 08:46:34 AM 29.5225 -94.0389 272° West 347 399 17,700 -2,032 Descending Houston Center
Wed 08:47:09 AM 29.5239 -94.1019 271° West 335 386 16,500 -1,929 Descending Houston Center
Wed 08:47:30 AM 29.5264 -94.1394 274° West 323 372 15,900 -1,742 Descending Houston Center
Wed 08:48:11 AM 29.5283 -94.2036 272° West 329 379 14,700 -1,869 Descending Houston Center
Wed 08:48:31 AM 29.5286 -94.2450 270° West 331 381 14,000 -1,259 Descending Houston Center
Wed 08:49:32 AM 29.5344 -94.3475 274° West 313 360 13,000 -757 Descending Houston Center
Wed 08:50:14 AM 29.5589 -94.4006 298° West 322 371 12,700 -885 Descending Houston Center
Wed 08:50:33 AM 29.5708 -94.4367 291° West 305 351 12,100 -1,548 Descending Houston Center
Wed 08:51:16 AM 29.5936 -94.4850 298° West 303 349 11,100 -1,672 Descending Houston Center
Wed 08:51:34 AM 29.6081 -94.5183 296° West 281 323 10,400 -1,475 Descending Houston Center
Wed 08:52:17 AM 29.6283 -94.5614 298° West 280 322 9,600 -1,475 Descending Houston Center
Wed 08:52:35 AM 29.6550 -94.5892 318° Northwest 271 312 8,900 -1,161 Descending Houston Center
Wed 08:53:19 AM 29.6864 -94.6178 322° Northwest 277 319 8,400 -885 Descending Houston Center
Wed 08:53:36 AM 29.7133 -94.6467 317° Northwest 273 314 8,000 -387 Descending Houston Center
Wed 08:54:21 AM 29.7553 -94.6853 321° Northwest 274 315 8,000  Level Houston Center
Wed 08:54:37 AM 29.7689 -94.7022 313° West 265 305 8,000  Level Houston Center
Wed 08:55:22 AM 29.8047 -94.7469 313° West 267 307 8,000 -97 Level Houston Center
Wed 08:55:39 AM 29.8172 -94.7661 307° West 260 299 7,900 -581 Descending Houston Center
Wed 08:56:24 AM 29.8514 -94.8094 312° West 262 302 7,400 -885 Descending Houston Center
Wed 08:56:40 AM 29.8700 -94.8342 311° West 260 299 7,000 -885 Descending Houston Center
Wed 08:57:25 AM 29.8981 -94.8714 311° West 259 298 6,500 -689 Descending Houston Center
Wed 08:57:41 AM 29.9178 -94.8956 313° West 260 299 6,300 -484 Descending Houston Center
Wed 08:58:27 AM 29.9464 -94.9344 310° West 263 303 6,000 -492 Descending Houston Center
Wed 08:58:42 AM 29.9600 -94.9628 299° West 255 293 5,800 -484 Descending Houston Center
Wed 08:59:29 AM 29.9831 -95.0031 303° West 255 293 5,500 -722 Descending Houston Center
Wed 09:00:30 AM 29.9931 -95.0764 279° West 189 217 4,500 -1,037 Descending Houston Center
Wed 09:00:50 AM 29.9933 -95.0961 271° West 164 189 4,100 -871 Descending Houston Center
Wed 09:01:32 AM 29.9936 -95.1289 271° West 167 192 3,600 -874 Descending Houston Center
Wed 09:02:33 AM 29.9939 -95.1825 270° West 167 192 2,600 -984 Descending Houston Center

Login

Don't have an account? Register now (free) for customized features, flight alerts, and more!